createdAt,value
2023-04-04T00:01:06.395Z,100450.47
2023-04-04T00:04:08.633Z,100451.19
2023-04-04T00:07:10.862Z,100454.59
2023-04-04T00:10:13.198Z,100452.81
2023-04-04T00:13:15.392Z,100464.53
2023-04-04T00:16:17.641Z,100472.25
2023-04-04T00:19:19.819Z,100461.56
2023-04-04T00:22:21.927Z,100473.66
2023-04-04T00:25:24.438Z,100470.63
2023-04-04T00:28:26.587Z,100471.72
2023-04-04T00:31:28.896Z,100475.97
2023-04-04T00:34:31.606Z,100478.31
2023-04-04T00:37:34.169Z,100486.56
2023-04-04T00:40:47.940Z,100484.47
2023-04-04T00:43:50.139Z,100480.50
2023-04-04T00:46:52.825Z,100481.84
2023-04-04T00:49:54.979Z,100478.31
2023-04-04T00:52:57.177Z,100479.28
2023-04-04T00:55:59.600Z,100468.28
2023-04-04T00:59:02.061Z,100457.38
2023-04-04T01:02:04.292Z,100458.81
2023-04-04T01:05:06.995Z,100453.72
2023-04-04T01:08:09.174Z,100445.09
2023-04-04T01:11:11.474Z,100440.13
2023-04-04T01:14:13.866Z,100434.78
2023-04-04T01:17:16.638Z,100423.28
2023-04-04T01:20:21.963Z,100417.81
2023-04-04T01:23:35.800Z,100416.28
2023-04-04T01:26:39.870Z,100412.91
2023-04-04T01:29:42.233Z,100412.56
2023-04-04T01:32:51.586Z,100399.16
2023-04-04T01:36:08.374Z,100396.34
2023-04-04T01:39:37.055Z,100392.00
2023-04-04T01:42:40.288Z,100377.94
2023-04-04T01:45:42.707Z,100379.00
2023-04-04T01:48:47.855Z,100389.91
2023-04-04T01:51:55.107Z,100377.16
2023-04-04T01:54:58.138Z,100365.69
2023-04-04T01:58:00.603Z,100365.50
2023-04-04T02:01:02.980Z,100344.97
2023-04-04T02:04:05.440Z,100358.66
2023-04-04T02:07:08.223Z,100347.78
2023-04-04T02:10:11.178Z,100343.88
2023-04-04T02:13:14.137Z,100342.03
2023-04-04T02:16:16.767Z,100330.28
2023-04-04T02:19:18.952Z,100328.16
2023-04-04T02:22:21.046Z,100323.28
2023-04-04T02:25:26.256Z,100323.28
2023-04-04T02:28:28.861Z,100316.63
2023-04-04T02:31:31.259Z,100312.50
2023-04-04T02:34:33.960Z,100310.19
2023-04-04T02:37:37.073Z,100317.84
2023-04-04T02:40:45.583Z,100315.75
2023-04-04T02:43:47.863Z,100319.66
2023-04-04T02:46:51.133Z,100316.91
2023-04-04T02:49:53.534Z,100314.91
2023-04-04T02:53:03.033Z,100324.97
2023-04-04T02:56:08.317Z,100329.97
2023-04-04T02:59:10.707Z,100319.19
2023-04-04T03:02:12.903Z,100321.97
2023-04-04T03:05:15.427Z,100337.34
2023-04-04T03:08:19.341Z,100329.81
2023-04-04T03:11:21.709Z,100331.75
2023-04-04T03:14:26.770Z,100337.78
2023-04-04T03:17:30.245Z,100341.22
2023-04-04T03:20:33.129Z,100340.03
2023-04-04T03:23:35.358Z,100340.47
2023-04-04T03:26:37.635Z,100329.47
2023-04-04T03:29:40.164Z,100341.56
2023-04-04T03:32:42.668Z,100342.50
2023-04-04T03:35:44.852Z,100344.22
2023-04-04T03:38:46.946Z,100356.03
2023-04-04T03:41:49.164Z,100353.22
2023-04-04T03:44:53.398Z,100357.50
2023-04-04T03:48:03.659Z,100350.88
2023-04-04T03:51:06.795Z,100355.34
2023-04-04T03:54:09.007Z,100357.69
2023-04-04T03:57:11.276Z,100357.91
2023-04-04T04:00:14.054Z,100349.50
2023-04-04T04:03:17.326Z,100345.81
2023-04-04T04:06:21.213Z,100338.41
2023-04-04T04:09:23.783Z,100330.16
2023-04-04T04:12:27.092Z,100339.72
2023-04-04T04:15:29.264Z,100335.13
2023-04-04T04:18:34.106Z,100341.84
2023-04-04T04:21:36.904Z,100342.13
2023-04-04T04:24:39.069Z,100336.19
2023-04-04T04:27:41.946Z,100328.63
2023-04-04T04:30:44.673Z,100332.06
2023-04-04T04:33:48.940Z,100334.13
2023-04-04T04:36:54.388Z,100334.75
2023-04-04T04:40:08.663Z,100334.50
2023-04-04T04:43:31.198Z,100332.53
2023-04-04T04:46:33.770Z,100329.22
2023-04-04T04:49:36.866Z,100331.28
2023-04-04T04:52:42.780Z,100323.88
2023-04-04T04:55:46.561Z,100333.81
2023-04-04T04:58:50.966Z,100334.13
2023-04-04T05:02:01.830Z,100329.53
2023-04-04T05:05:04.932Z,100335.44
2023-04-04T05:08:08.714Z,100323.28
2023-04-04T05:11:15.272Z,100323.66
2023-04-04T05:14:17.541Z,100335.09
2023-04-04T05:17:26.160Z,100331.19
2023-04-04T05:20:32.014Z,100328.28
2023-04-04T05:23:36.302Z,100338.06
2023-04-04T05:26:41.828Z,100337.84
2023-04-04T05:29:44.164Z,100345.28
2023-04-04T05:32:46.481Z,100356.38
2023-04-04T05:35:58.256Z,100355.94
2023-04-04T05:39:01.488Z,100357.16
2023-04-04T05:42:07.529Z,100360.22
2023-04-04T05:45:14.300Z,100352.22
2023-04-04T05:48:16.521Z,100352.84
2023-04-04T05:51:25.052Z,100358.38
2023-04-04T05:54:41.113Z,100364.09
2023-04-04T05:57:52.965Z,100366.91
2023-04-04T06:01:01.796Z,100364.06
2023-04-04T06:04:04.740Z,100359.88
2023-04-04T06:07:12.486Z,100357.78
2023-04-04T06:10:14.904Z,100352.97
2023-04-04T06:13:17.322Z,100372.38
2023-04-04T06:16:26.518Z,100365.41
2023-04-04T06:19:28.906Z,100368.69
2023-04-04T06:22:31.105Z,100361.28
2023-04-04T06:25:33.340Z,100369.69
2023-04-04T06:28:36.628Z,100356.44
2023-04-04T06:31:39.216Z,100319.72
2023-04-04T06:34:45.645Z,100314.66
2023-04-04T06:37:55.934Z,100326.72
2023-04-04T06:40:59.425Z,100320.28
2023-04-04T06:44:01.780Z,100308.28
2023-04-04T06:47:04.042Z,100306.72
2023-04-04T06:50:06.680Z,100311.25
2023-04-04T06:53:09.468Z,100307.13
2023-04-04T06:56:12.053Z,100315.88
2023-04-04T06:59:14.285Z,100315.78
2023-04-04T07:02:16.639Z,100313.06
2023-04-04T07:05:19.277Z,100329.66
2023-04-04T07:08:27.413Z,100320.50
2023-04-04T07:11:35.972Z,100328.97
2023-04-04T07:14:40.820Z,100342.06
2023-04-04T07:17:43.023Z,100351.19
2023-04-04T07:20:48.540Z,100339.16
2023-04-04T07:23:51.104Z,100334.56
2023-04-04T07:26:53.270Z,100341.88
2023-04-04T07:29:55.839Z,100343.75
2023-04-04T07:33:00.521Z,100341.53
2023-04-04T07:36:03.527Z,100324.19
2023-04-04T07:39:05.793Z,100346.31
2023-04-04T07:42:08.451Z,100339.78
2023-04-04T07:45:10.959Z,100342.25
2023-04-04T07:48:13.402Z,100340.16
2023-04-04T07:51:15.549Z,100349.31
2023-04-04T07:54:19.119Z,100347.94
2023-04-04T07:57:22.529Z,100344.09
2023-04-04T08:00:26.468Z,100350.84
2023-04-04T08:03:29.001Z,100345.41
2023-04-04T08:06:31.575Z,100347.75
2023-04-04T08:09:39.593Z,100335.28
2023-04-04T08:12:48.889Z,100334.19
2023-04-04T08:15:51.458Z,100347.44
2023-04-04T08:18:58.315Z,100361.56
2023-04-04T08:22:03.150Z,100354.75
2023-04-04T08:25:05.930Z,100352.09
2023-04-04T08:28:08.385Z,100358.50
2023-04-04T08:31:16.641Z,100344.09
2023-04-04T08:34:20.727Z,100342.44
2023-04-04T08:37:23.274Z,100355.59
2023-04-04T08:40:32.300Z,100340.59
2023-04-04T08:43:38.722Z,100335.69
2023-04-04T08:46:42.241Z,100338.00
2023-04-04T08:49:46.779Z,100328.47
2023-04-04T08:52:49.313Z,100324.78
2023-04-04T08:55:51.615Z,100314.31
2023-04-04T08:58:54.111Z,100313.16
2023-04-04T09:02:16.889Z,100314.06
2023-04-04T09:05:19.780Z,100318.88
2023-04-04T09:08:24.878Z,100309.19
2023-04-04T09:11:28.421Z,100309.41
2023-04-04T09:14:31.871Z,100302.91
2023-04-04T09:17:34.215Z,100308.75
2023-04-04T09:20:41.400Z,100306.63
2023-04-04T09:23:44.978Z,100304.41
2023-04-04T09:26:52.624Z,100307.81
2023-04-04T09:30:03.939Z,100314.66
2023-04-04T09:33:10.586Z,100306.72
2023-04-04T09:36:13.503Z,100293.56
2023-04-04T09:39:20.748Z,100298.09
2023-04-04T09:42:26.786Z,100295.03
2023-04-04T09:45:45.805Z,100293.88
2023-04-04T09:49:01.723Z,100264.19
2023-04-04T09:52:04.310Z,100302.81
2023-04-04T09:55:08.675Z,100275.22
2023-04-04T09:58:18.583Z,100289.72
2023-04-04T10:01:20.901Z,100302.88
2023-04-04T10:04:29.907Z,100297.44
2023-04-04T10:07:32.560Z,100296.81
2023-04-04T10:10:34.738Z,100304.38
2023-04-04T10:13:41.023Z,100296.06
2023-04-04T10:16:45.642Z,100282.13
2023-04-04T10:19:48.083Z,100296.94
2023-04-04T10:22:50.747Z,100283.94
2023-04-04T10:25:57.204Z,100278.59
2023-04-04T10:29:00.082Z,100272.06
2023-04-04T10:32:05.735Z,100253.69
2023-04-04T10:35:12.652Z,100262.38
2023-04-04T10:38:14.862Z,100255.44
2023-04-04T10:41:18.352Z,100252.13
2023-04-04T10:44:34.803Z,100269.28
2023-04-04T10:47:37.679Z,100260.34
2023-04-04T10:50:40.689Z,100265.88
2023-04-04T10:53:43.234Z,100267.97
2023-04-04T10:56:46.373Z,100267.47
2023-04-04T11:00:13.290Z,100258.97
2023-04-04T11:03:15.700Z,100266.34
2023-04-04T11:06:18.662Z,100254.84
2023-04-04T11:09:46.617Z,100259.75
2023-04-04T11:13:05.450Z,100251.75
2023-04-04T11:16:22.576Z,100243.47
2023-04-04T11:19:25.163Z,100251.66
2023-04-04T11:22:28.781Z,100257.03
2023-04-04T11:25:30.949Z,100262.66
2023-04-04T11:28:36.451Z,100241.84
2023-04-04T11:31:50.069Z,100234.50
2023-04-04T11:34:53.684Z,100240.28
2023-04-04T11:37:56.073Z,100230.47
2023-04-04T11:40:58.716Z,100236.75
2023-04-04T11:44:09.176Z,100237.69
2023-04-04T11:47:16.839Z,100226.09
2023-04-04T11:50:19.573Z,100211.09
2023-04-04T11:53:32.782Z,100212.03
2023-04-04T11:56:45.523Z,100206.47
2023-04-04T11:59:49.512Z,100222.56
2023-04-04T12:02:52.384Z,100213.34
2023-04-04T12:05:54.778Z,100205.63
2023-04-04T12:08:57.691Z,100205.16
2023-04-04T12:12:00.273Z,100197.91
2023-04-04T12:15:16.613Z,100196.75
2023-04-04T12:18:22.891Z,100190.28
2023-04-04T12:21:26.702Z,100191.00
2023-04-04T12:24:28.945Z,100186.38
2023-04-04T12:27:31.256Z,100177.47
2023-04-04T12:30:33.490Z,100181.09
2023-04-04T12:33:36.559Z,100182.75
2023-04-04T12:36:39.316Z,100176.34
2023-04-04T12:39:49.131Z,100184.16
2023-04-04T12:42:53.046Z,100179.34
2023-04-04T12:45:58.506Z,100171.59
2023-04-04T12:49:00.720Z,100167.28
2023-04-04T12:52:05.276Z,100171.38
2023-04-04T12:55:09.530Z,100167.09
2023-04-04T12:58:12.075Z,100163.56
2023-04-04T13:01:15.759Z,100166.84
2023-04-04T13:04:18.279Z,100169.78
2023-04-04T13:07:29.106Z,100164.16
2023-04-04T13:10:32.189Z,100166.56
2023-04-04T13:13:38.616Z,100163.13
2023-04-04T13:16:41.831Z,100158.81
2023-04-04T13:19:44.026Z,100157.53
2023-04-04T13:22:46.270Z,100158.31
2023-04-04T13:25:48.670Z,100156.16
2023-04-04T13:28:51.019Z,100153.97
2023-04-04T13:31:53.425Z,100152.88
2023-04-04T13:34:55.831Z,100150.97
2023-04-04T13:37:57.923Z,100150.19
2023-04-04T13:41:00.811Z,100143.19
2023-04-04T13:44:02.966Z,100148.91
2023-04-04T13:47:05.169Z,100140.59
2023-04-04T13:50:07.979Z,100148.72
2023-04-04T13:53:10.979Z,100141.22
2023-04-04T13:56:18.449Z,100147.97
2023-04-04T13:59:21.365Z,100147.72
2023-04-04T14:02:24.326Z,100141.53
2023-04-04T14:05:26.584Z,100135.06
2023-04-04T14:08:28.768Z,100145.34
2023-04-04T14:11:31.359Z,100139.19
2023-04-04T14:14:35.590Z,100149.19
2023-04-04T14:17:38.950Z,100137.06
2023-04-04T14:20:41.248Z,100141.94
2023-04-04T14:23:43.422Z,100147.88
2023-04-04T14:26:47.635Z,100152.72
2023-04-04T14:29:49.766Z,100155.47
2023-04-04T14:32:51.962Z,100152.78
2023-04-04T14:35:54.281Z,100155.25
2023-04-04T14:38:56.751Z,100152.84
2023-04-04T14:41:59.058Z,100147.25
2023-04-04T14:45:04.978Z,100150.50
2023-04-04T14:48:07.738Z,100145.91
2023-04-04T14:51:10.017Z,100147.00
2023-04-04T14:54:12.321Z,100150.53
2023-04-04T14:57:14.429Z,100156.97
2023-04-04T15:00:20.536Z,100155.91
2023-04-04T15:03:22.773Z,100149.97
2023-04-04T15:06:25.010Z,100158.59
2023-04-04T15:09:27.184Z,100151.03
2023-04-04T15:12:29.328Z,100157.25
2023-04-04T15:15:32.578Z,100150.75
2023-04-04T15:18:35.372Z,100148.00
2023-04-04T15:21:37.573Z,100151.75
2023-04-04T15:24:40.182Z,100159.28
2023-04-04T15:27:42.371Z,100159.53
2023-04-04T15:30:44.575Z,100161.13
2023-04-04T15:33:46.923Z,100163.56
2023-04-04T15:36:51.365Z,100162.22
2023-04-04T15:39:54.527Z,100163.00
2023-04-04T15:42:57.195Z,100168.91
2023-04-04T15:45:59.379Z,100166.69
2023-04-04T15:49:01.624Z,100175.81
2023-04-04T15:52:03.923Z,100181.47
2023-04-04T15:55:11.986Z,100176.91
2023-04-04T15:58:14.139Z,100178.78
2023-04-04T16:01:16.521Z,100187.66
2023-04-04T16:04:18.711Z,100191.66
2023-04-04T16:07:20.891Z,100184.59
2023-04-04T16:10:23.061Z,100191.25
2023-04-04T16:13:25.205Z,100193.28
2023-04-04T16:16:27.460Z,100213.69
2023-04-04T16:19:30.398Z,100210.31
2023-04-04T16:22:33.257Z,100216.66
2023-04-04T16:25:35.689Z,100218.38
2023-04-04T16:28:37.830Z,100221.72
2023-04-04T16:31:40.234Z,100220.78
2023-04-04T16:34:42.501Z,100234.16
2023-04-04T16:37:44.648Z,100236.13
2023-04-04T16:40:46.820Z,100226.78
2023-04-04T16:43:52.493Z,100244.34
2023-04-04T16:46:54.725Z,100241.88
2023-04-04T16:49:56.953Z,100243.59
2023-04-04T16:52:59.630Z,100254.53
2023-04-04T16:56:01.755Z,100252.50
2023-04-04T16:59:03.905Z,100257.16
2023-04-04T17:02:10.349Z,100260.97
2023-04-04T17:05:16.130Z,100258.94
2023-04-04T17:08:18.294Z,100271.72
2023-04-04T17:11:21.016Z,100282.84
2023-04-04T17:14:25.020Z,100283.19
2023-04-04T17:17:27.416Z,100275.91
2023-04-04T17:20:30.993Z,100277.25
2023-04-04T17:23:34.356Z,100290.56
2023-04-04T17:26:36.586Z,100293.97
2023-04-04T17:29:39.227Z,100295.16
2023-04-04T17:32:41.484Z,100293.53
2023-04-04T17:35:44.297Z,100298.66
2023-04-04T17:38:46.709Z,100307.66
2023-04-04T17:41:49.227Z,100312.34
2023-04-04T17:44:51.403Z,100312.34
2023-04-04T17:47:53.577Z,100323.63
2023-04-04T17:50:55.733Z,100323.66
2023-04-04T17:53:57.849Z,100320.31
2023-04-04T17:57:00.232Z,100331.38
2023-04-04T18:00:02.564Z,100330.09
2023-04-04T18:03:04.815Z,100333.38
2023-04-04T18:06:07.021Z,100334.78
2023-04-04T18:09:10.221Z,100339.91
2023-04-04T18:12:12.800Z,100349.72
2023-04-04T18:15:15.251Z,100352.75
2023-04-04T18:18:17.480Z,100357.53
2023-04-04T18:21:19.707Z,100363.47
2023-04-04T18:24:21.879Z,100358.94
2023-04-04T18:27:24.204Z,100362.41
2023-04-04T18:30:26.668Z,100367.16
2023-04-04T18:33:28.831Z,100370.88
2023-04-04T18:36:31.003Z,100377.63
2023-04-04T18:39:33.174Z,100374.22
2023-04-04T18:42:35.612Z,100389.34
2023-04-04T18:45:40.638Z,100394.00
2023-04-04T18:48:43.559Z,100397.13
2023-04-04T18:51:47.338Z,100392.69
2023-04-04T18:54:50.157Z,100413.50
2023-04-04T18:57:52.260Z,100416.41
2023-04-04T19:00:55.754Z,100422.63
2023-04-04T19:03:58.082Z,100426.72
2023-04-04T19:07:05.549Z,100432.53
2023-04-04T19:10:08.551Z,100438.56
2023-04-04T19:13:10.807Z,100437.06
2023-04-04T19:16:13.022Z,100449.94
2023-04-04T19:19:15.477Z,100453.91
2023-04-04T19:22:17.935Z,100462.94
2023-04-04T19:25:20.382Z,100461.31
2023-04-04T19:28:22.632Z,100473.50
2023-04-04T19:31:29.939Z,100459.97
2023-04-04T19:34:32.437Z,100472.69
2023-04-04T19:37:34.627Z,100466.03
2023-04-04T19:40:47.129Z,100466.97
2023-04-04T19:43:50.610Z,100481.53
2023-04-04T19:46:53.934Z,100485.41
2023-04-04T19:49:57.159Z,100486.00
2023-04-04T19:52:59.358Z,100496.78
2023-04-04T19:56:09.181Z,100497.72
2023-04-04T19:59:40.209Z,100505.94
2023-04-04T20:02:48.227Z,100502.44
2023-04-04T20:05:58.243Z,100497.38
2023-04-04T20:09:02.354Z,100508.66
2023-04-04T20:12:06.829Z,100502.34
2023-04-04T20:15:14.766Z,100505.41
2023-04-04T20:18:32.547Z,100501.47
2023-04-04T20:21:35.824Z,100506.41
2023-04-04T20:24:39.317Z,100494.72
2023-04-04T20:27:41.427Z,100506.69
2023-04-04T20:30:43.670Z,100510.19
2023-04-04T20:33:45.938Z,100497.06
2023-04-04T20:36:48.514Z,100510.31
2023-04-04T20:39:58.960Z,100504.38
2023-04-04T20:43:01.202Z,100513.03
2023-04-04T20:46:03.405Z,100510.69
2023-04-04T20:49:05.607Z,100513.78
2023-04-04T20:52:07.756Z,100513.56
2023-04-04T20:55:10.225Z,100515.69
2023-04-04T20:58:29.743Z,100516.41
2023-04-04T21:01:31.925Z,100525.81
2023-04-04T21:04:34.530Z,100531.75
2023-04-04T21:07:41.461Z,100529.44
2023-04-04T21:11:02.467Z,100524.19
2023-04-04T21:14:06.169Z,100527.06
2023-04-04T21:17:09.423Z,100527.25
2023-04-04T21:20:16.022Z,100523.84
2023-04-04T21:23:27.319Z,100529.94
2023-04-04T21:26:37.155Z,100532.13
2023-04-04T21:29:39.617Z,100531.75
2023-04-04T21:32:41.768Z,100524.72
2023-04-04T21:35:47.927Z,100523.59
2023-04-04T21:38:51.511Z,100521.44
2023-04-04T21:41:58.001Z,100520.22
2023-04-04T21:45:00.225Z,100506.44
2023-04-04T21:48:02.447Z,100516.03
2023-04-04T21:51:05.140Z,100506.06
2023-04-04T21:54:07.581Z,100513.75
2023-04-04T21:57:09.664Z,100507.06
2023-04-04T22:00:13.632Z,100517.72
2023-04-04T22:03:16.709Z,100519.00
2023-04-04T22:06:21.848Z,100511.78
2023-04-04T22:09:25.735Z,100517.59
2023-04-04T22:12:27.952Z,100517.13
2023-04-04T22:15:30.135Z,100507.06
2023-04-04T22:18:35.013Z,100511.94
2023-04-04T22:21:37.471Z,100511.31
2023-04-04T22:24:40.762Z,100510.03
2023-04-04T22:27:42.934Z,100508.03
2023-04-04T22:30:45.063Z,100509.84
2023-04-04T22:33:47.193Z,100506.81
2023-04-04T22:36:49.389Z,100504.00
2023-04-04T22:39:51.570Z,100513.09
2023-04-04T22:42:53.886Z,100516.00
2023-04-04T22:45:56.288Z,100507.81
2023-04-04T22:49:08.820Z,100513.56
2023-04-04T22:52:11.207Z,100514.41
2023-04-04T22:55:16.123Z,100509.09
2023-04-04T22:58:18.959Z,100508.91
2023-04-04T23:01:21.116Z,100517.69
2023-04-04T23:04:23.368Z,100514.81
2023-04-04T23:07:26.559Z,100510.72
2023-04-04T23:10:28.874Z,100509.16
2023-04-04T23:13:31.214Z,100514.72
2023-04-04T23:16:35.467Z,100513.50
2023-04-04T23:19:37.648Z,100519.78
2023-04-04T23:22:39.779Z,100509.09
2023-04-04T23:25:41.973Z,100510.72
2023-04-04T23:28:44.075Z,100506.41
2023-04-04T23:31:46.306Z,100506.28
2023-04-04T23:34:48.818Z,100512.00
2023-04-04T23:37:51.198Z,100503.44
2023-04-04T23:40:54.223Z,100511.00
2023-04-04T23:43:56.489Z,100509.38
2023-04-04T23:47:01.743Z,100508.16
2023-04-04T23:50:04.175Z,100508.16
2023-04-04T23:53:06.403Z,100511.63
2023-04-04T23:56:08.688Z,100511.22
2023-04-04T23:59:11.389Z,100514.72
